Time;durP1;ratioP1;P1;durP2;ratioP2;P2;SDS_P1;SDS_P2;PMS_P1;PMS_P2;Temp;Humidity;BMP_temperature;BMP_pressure;BME280_temperature;BME280_humidity;BME280_pressure;Samples;Min_cycle;Max_cycle;Signal;HPM_P1;HPM_P2
2021/07/17 00:01:37;;;;;;;0.10;0.10;;;;;;;30.03;42.11;99453.63;5050866;28;20056;-57
2021/07/17 00:04:04;;;;;;;0.30;0.30;;;;;;;30.03;41.89;99451.75;5052084;28;20053;-59
2021/07/17 00:06:30;;;;;;;0.20;0.20;;;;;;;30.04;42.16;99449.88;5050805;28;20045;-57
2021/07/17 00:08:56;;;;;;;0.17;0.17;;;;;;;30.01;42.25;99451.13;5050764;28;20228;-58
2021/07/17 00:11:22;;;;;;;0.00;0.00;;;;;;;30.02;42.10;99452.78;5051655;28;20072;-58
2021/07/17 00:13:48;;;;;;;0.30;0.30;;;;;;;30.00;41.96;99454.88;5051913;28;20041;-57
2021/07/17 00:16:15;;;;;;;0.45;0.45;;;;;;;29.99;42.10;99450.53;5051544;28;20530;-57
2021/07/17 00:18:41;;;;;;;0.40;0.40;;;;;;;29.98;42.22;99451.56;5050536;28;20045;-58
2021/07/17 00:21:07;;;;;;;0.10;0.10;;;;;;;29.93;42.21;99440.66;5033628;28;20051;-59
2021/07/17 00:23:33;;;;;;;1.45;1.10;;;;;;;29.96;42.38;99449.09;5051532;28;20044;-58
2021/07/17 00:26:04;;;;;;;0.10;0.10;;;;;;;29.95;42.36;99441.25;5051787;28;20041;-57
2021/07/17 00:28:33;;;;;;;0.10;0.10;;;;;;;29.84;42.45;99429.31;5051551;28;20041;-59
2021/07/17 00:30:59;;;;;;;0.30;0.30;;;;;;;29.89;42.35;99437.56;5050451;28;20045;-58
2021/07/17 00:33:24;;;;;;;0.30;0.30;;;;;;;29.92;42.39;99455.13;5051338;28;20543;-58
2021/07/17 00:35:59;;;;;;;0.10;0.10;;;;;;;29.91;42.35;99445.41;5051400;28;20056;-58
2021/07/17 00:38:25;;;;;;;0.22;0.22;;;;;;;29.87;42.25;99439.66;5051098;28;20124;-59
2021/07/17 00:40:51;;;;;;;0.52;0.52;;;;;;;29.91;42.42;99459.69;5050060;28;20140;-58
2021/07/17 00:43:17;;;;;;;0.28;0.28;;;;;;;29.89;42.48;99453.72;5064893;28;20080;-58
2021/07/17 00:45:43;;;;;;;0.10;0.10;;;;;;;29.89;42.51;99459.09;5051437;28;20049;-59
2021/07/17 00:48:08;;;;;;;0.20;0.20;;;;;;;29.86;42.44;99451.47;5050884;28;20123;-59
2021/07/17 00:50:34;;;;;;;0.28;0.28;;;;;;;29.88;42.59;99459.31;5051284;28;20057;-58
2021/07/17 00:53:00;;;;;;;0.30;0.30;;;;;;;29.87;42.56;99460.38;5051240;28;20056;-58
2021/07/17 00:55:27;;;;;;;0.00;0.00;;;;;;;29.85;42.63;99451.66;5033369;28;20297;-59
2021/07/17 00:57:53;;;;;;;0.10;0.10;;;;;;;29.85;42.61;99451.66;5051066;28;20049;-58
2021/07/17 01:00:19;;;;;;;0.15;0.15;;;;;;;29.83;42.67;99457.28;5049445;28;20518;-57
2021/07/17 01:02:55;;;;;;;0.30;0.30;;;;;;;29.84;42.77;99450.84;5051153;28;20052;-58
2021/07/17 01:05:21;;;;;;;0.00;0.00;;;;;;;29.85;42.57;99451.66;5032850;28;20099;-57
2021/07/17 01:07:47;;;;;;;0.30;0.30;;;;;;;29.86;42.73;99456.00;5033148;28;20441;-58
2021/07/17 01:10:14;;;;;;;0.43;0.43;;;;;;;29.82;42.58;99452.91;5050492;28;20045;-58
2021/07/17 01:12:40;;;;;;;0.20;0.20;;;;;;;29.81;42.78;99445.84;5032874;28;20045;-58
2021/07/17 01:15:06;;;;;;;0.00;0.00;;;;;;;29.86;42.61;99453.31;5050691;28;20094;-57
2021/07/17 01:17:33;;;;;;;0.10;0.10;;;;;;;29.87;42.66;99460.38;5050617;28;20045;-57
2021/07/17 01:19:59;;;;;;;0.40;0.40;;;;;;;29.88;42.65;99448.53;5050668;28;20049;-57
2021/07/17 01:22:25;;;;;;;0.38;0.38;;;;;;;29.88;42.63;99440.47;5049054;28;20140;-57
2021/07/17 01:25:03;;;;;;;0.10;0.10;;;;;;;29.90;42.54;99452.69;5032841;28;20099;-58
2021/07/17 01:27:29;;;;;;;0.28;0.28;;;;;;;29.93;42.64;99446.03;5050107;28;20057;-59
2021/07/17 01:30:12;;;;;;;0.27;0.27;;;;;;;29.94;42.42;99448.47;5050589;28;20056;-58
2021/07/17 01:32:38;;;;;;;0.10;0.10;;;;;;;29.93;42.29;99454.94;5050654;28;20287;-57
2021/07/17 01:35:05;;;;;;;0.00;0.00;;;;;;;30.02;42.46;99457.34;5049896;28;20506;-57
2021/07/17 01:37:31;;;;;;;0.30;0.30;;;;;;;30.16;41.99;99459.72;5032423;28;20159;-57
2021/07/17 01:39:57;;;;;;;0.52;0.52;;;;;;;30.31;41.71;99451.28;5050252;28;20056;-56
2021/07/17 01:42:23;;;;;;;0.15;0.15;;;;;;;30.40;41.19;99433.81;5021021;28;20097;-58
2021/07/17 01:44:49;;;;;;;0.17;0.17;;;;;;;30.73;40.70;99455.03;5030400;28;20273;-57
2021/07/17 01:47:15;;;;;;;0.10;0.10;;;;;;;30.90;40.31;99456.94;5029926;28;20550;-57
2021/07/17 01:49:41;;;;;;;0.03;0.03;;;;;;;31.04;40.09;99454.13;5030323;28;20152;-58
2021/07/17 01:52:07;;;;;;;0.32;0.20;;;;;;;31.22;39.53;99460.31;5030103;28;20210;-58
2021/07/17 01:54:34;;;;;;;0.20;0.20;;;;;;;31.37;39.69;99451.81;5012320;28;20530;-58
2021/07/17 01:57:03;;;;;;;3.92;0.88;;;;;;;31.55;39.11;99442.88;5030010;28;20518;-59
2021/07/17 01:59:29;;;;;;;;;;;;;;;31.78;38.91;99448.34;5030352;28;20057;-54
2021/07/17 02:01:55;;;;;;;0.40;0.40;;;;;;;31.95;38.24;99450.16;5029916;28;19943;-56
2021/07/17 02:04:21;;;;;;;0.10;0.10;;;;;;;32.10;38.02;99438.13;5012213;28;20127;-56
2021/07/17 02:06:47;;;;;;;0.25;0.25;;;;;;;32.31;37.70;99442.94;5029837;28;20554;-57
2021/07/17 02:09:13;;;;;;;0.10;0.10;;;;;;;32.48;37.29;99450.13;5029560;28;20053;-58
2021/07/17 02:11:39;;;;;;;0.17;0.17;;;;;;;32.64;37.31;99448.59;5029895;28;20103;-58
2021/07/17 02:14:05;;;;;;;0.10;0.10;;;;;;;32.82;36.80;99448.44;5029807;28;20053;-58
2021/07/17 02:16:31;;;;;;;0.10;0.10;;;;;;;32.89;36.82;99435.63;5029564;28;20451;-57
2021/07/17 02:19:00;;;;;;;0.10;0.10;;;;;;;33.10;36.49;99447.72;5029726;28;20055;-56
2021/07/17 02:21:26;;;;;;;0.10;0.10;;;;;;;33.21;36.24;99437.94;4995751;28;20230;-57
2021/07/17 02:23:52;;;;;;;0.10;0.10;;;;;;;33.38;35.67;99436.91;5029614;28;20049;-58
2021/07/17 02:26:18;;;;;;;0.10;0.10;;;;;;;33.49;35.31;99446.88;5029512;28;20482;-56
2021/07/17 02:28:44;;;;;;;0.20;0.20;;;;;;;33.62;35.33;99434.09;5029554;28;20049;-57
2021/07/17 02:31:10;;;;;;;0.20;0.20;;;;;;;33.73;35.20;99436.78;5029562;28;20045;-56
2021/07/17 02:33:36;;;;;;;0.20;0.20;;;;;;;33.78;34.60;99423.31;5029251;28;20068;-56
2021/07/17 02:36:03;;;;;;;0.40;0.40;;;;;;;33.98;34.32;99439.06;5029550;28;20076;-57
2021/07/17 02:38:29;;;;;;;0.25;0.25;;;;;;;34.10;34.22;99453.34;5029293;28;20046;-57
2021/07/17 02:40:54;;;;;;;0.20;0.20;;;;;;;34.22;34.39;99445.19;5029488;28;20110;-57
2021/07/17 02:43:20;;;;;;;0.40;0.40;;;;;;;34.28;33.83;99427.94;5027850;28;20108;-58
2021/07/17 02:45:46;;;;;;;0.43;0.43;;;;;;;34.51;33.82;99433.16;5029518;28;20099;-57
2021/07/17 02:48:12;;;;;;;0.10;0.10;;;;;;;34.65;33.53;99442.63;5033053;28;20609;-58
2021/07/17 02:50:38;;;;;;;0.10;0.10;;;;;;;34.80;33.25;99445.53;5033587;28;20096;-57
2021/07/17 02:53:04;;;;;;;0.10;0.10;;;;;;;34.95;32.93;99440.28;5033486;28;20045;-58
2021/07/17 02:55:30;;;;;;;0.20;0.20;;;;;;;35.10;32.57;99444.25;5033273;28;20581;-58
2021/07/17 02:57:56;;;;;;;0.10;0.10;;;;;;;35.24;32.33;99434.69;5033407;28;20510;-58
2021/07/17 03:00:22;;;;;;;0.20;0.20;;;;;;;35.37;32.12;99437.00;5033116;28;20045;-57
2021/07/17 03:02:48;;;;;;;0.10;0.10;;;;;;;35.48;31.94;99439.56;5033422;28;20042;-58
2021/07/17 03:05:14;;;;;;;0.10;0.10;;;;;;;35.61;31.78;99438.34;5033000;28;20069;-58
2021/07/17 03:07:40;;;;;;;0.43;0.43;;;;;;;35.77;31.51;99436.59;5032150;28;20041;-57
2021/07/17 03:10:06;;;;;;;0.10;0.10;;;;;;;35.82;31.33;99433.94;5033177;28;20073;-57
2021/07/17 03:12:32;;;;;;;0.32;0.32;;;;;;;36.00;31.08;99437.09;5032944;28;20045;-59
2021/07/17 03:14:58;;;;;;;0.30;0.30;;;;;;;36.13;30.98;99445.94;5033493;28;20135;-58
2021/07/17 03:17:24;;;;;;;0.50;0.50;;;;;;;36.25;30.63;99435.69;5031504;28;20048;-58
2021/07/17 03:19:50;;;;;;;0.32;0.32;;;;;;;36.35;30.46;99433.03;5032994;28;20594;-56
2021/07/17 03:22:16;;;;;;;0.17;0.17;;;;;;;36.47;30.38;99444.53;5014965;28;20053;-59
2021/07/17 03:24:42;;;;;;;1.20;0.30;;;;;;;36.49;30.17;99428.75;5033054;28;20056;-59
2021/07/17 03:27:08;;;;;;;0.10;0.10;;;;;;;36.70;29.97;99441.44;5032970;28;20041;-57
2021/07/17 03:29:34;;;;;;;0.30;0.30;;;;;;;36.87;29.54;99443.97;5032522;28;20051;-57
2021/07/17 03:32:00;;;;;;;0.22;0.22;;;;;;;36.94;29.63;99450.81;5015029;28;20056;-57
2021/07/17 03:34:26;;;;;;;0.10;0.10;;;;;;;37.08;29.64;99458.50;5032626;28;20049;-55
2021/07/17 03:36:54;;;;;;;0.20;0.20;;;;;;;37.16;29.51;99447.91;5031387;28;20415;-58
2021/07/17 03:39:20;;;;;;;0.30;0.30;;;;;;;37.25;29.38;99448.22;5032313;28;20045;-57
2021/07/17 03:41:46;;;;;;;0.15;0.15;;;;;;;37.32;29.27;99443.31;5033960;28;20519;-57
2021/07/17 03:44:13;;;;;;;0.10;0.10;;;;;;;37.40;29.10;99445.53;5032646;28;20515;-57
2021/07/17 03:46:39;;;;;;;0.20;0.20;;;;;;;37.48;28.63;99448.59;5047983;28;20053;-56
2021/07/17 03:49:05;;;;;;;0.20;0.20;;;;;;;37.58;28.42;99442.31;5047601;28;20077;-58
2021/07/17 03:51:31;;;;;;;0.30;0.30;;;;;;;37.65;28.87;99442.88;5032149;28;20519;-53
2021/07/17 03:53:57;;;;;;;0.32;0.32;;;;;;;37.70;28.42;99447.53;5032271;28;20469;-56
2021/07/17 03:56:23;;;;;;;0.25;0.25;;;;;;;37.81;28.04;99451.91;5047533;28;20588;-58
2021/07/17 03:58:49;;;;;;;0.10;0.10;;;;;;;37.84;28.12;99452.16;5030390;28;20076;-58
2021/07/17 04:01:16;;;;;;;0.17;0.17;;;;;;;37.93;27.98;99450.56;5032279;28;20503;-60
2021/07/17 04:03:45;;;;;;;0.20;0.20;;;;;;;37.99;28.01;99449.47;5047447;28;20046;-56
2021/07/17 04:06:11;;;;;;;;;;;;;;;38.05;27.75;99453.84;5031299;28;20045;-55
2021/07/17 04:08:37;;;;;;;0.15;0.15;;;;;;;38.09;28.24;99448.66;5031699;28;19928;-56
2021/07/17 04:11:03;;;;;;;0.20;0.20;;;;;;;38.17;27.73;99450.84;5031928;28;20614;-56
2021/07/17 04:13:29;;;;;;;0.20;0.20;;;;;;;38.27;27.94;99450.00;5031663;28;20049;-58
2021/07/17 04:15:55;;;;;;;0.17;0.17;;;;;;;38.33;27.85;99454.34;5031896;28;20108;-58
2021/07/17 04:18:21;;;;;;;0.28;0.28;;;;;;;38.40;27.84;99449.47;5013696;28;20042;-59
2021/07/17 04:20:47;;;;;;;0.40;0.40;;;;;;;38.42;27.63;99453.56;5031691;28;20080;-58
2021/07/17 04:23:16;;;;;;;0.20;0.20;;;;;;;38.50;27.42;99453.00;5046617;28;20057;-58
2021/07/17 04:25:42;;;;;;;0.40;0.40;;;;;;;38.57;27.27;99450.00;5031649;28;20042;-58
2021/07/17 04:28:08;;;;;;;0.20;0.20;;;;;;;38.65;27.52;99448.63;5046984;28;20052;-59
2021/07/17 04:30:34;;;;;;;0.20;0.20;;;;;;;38.75;27.38;99438.47;5031317;28;20049;-58
2021/07/17 04:33:00;;;;;;;0.22;0.22;;;;;;;38.76;26.82;99448.28;5031661;28;20467;-59
2021/07/17 04:35:26;;;;;;;0.20;0.20;;;;;;;38.86;26.68;99459.22;5031339;28;20049;-58
2021/07/17 04:37:52;;;;;;;0.30;0.30;;;;;;;38.91;27.02;99450.16;5031572;28;20072;-56
2021/07/17 04:40:18;;;;;;;0.30;0.30;;;;;;;38.94;27.05;99452.38;5030427;28;20621;-59
2021/07/17 04:42:46;;;;;;;0.88;0.88;;;;;;;39.06;26.96;99453.69;5045413;28;20049;-57
2021/07/17 04:45:12;;;;;;;0.17;0.17;;;;;;;39.12;26.92;99442.72;5051441;28;20091;-57
2021/07/17 04:47:38;;;;;;;0.30;0.30;;;;;;;39.12;26.56;99448.19;5051369;28;20055;-55
2021/07/17 04:50:07;;;;;;;0.15;0.15;;;;;;;39.24;26.50;99443.19;5051356;28;20052;-57
2021/07/17 04:52:33;;;;;;;0.17;0.17;;;;;;;39.20;26.32;99442.13;5050921;28;20465;-57
2021/07/17 04:54:59;;;;;;;0.40;0.40;;;;;;;39.33;26.21;99441.56;5051226;28;20506;-57
2021/07/17 04:57:25;;;;;;;0.10;0.10;;;;;;;39.32;26.09;99448.09;5050760;28;20060;-58
2021/07/17 04:59:51;;;;;;;0.20;0.20;;;;;;;39.37;25.99;99453.53;5050974;28;20049;-57
2021/07/17 05:02:17;;;;;;;0.30;0.30;;;;;;;39.37;26.16;99448.06;5033289;28;20053;-59
2021/07/17 05:04:42;;;;;;;0.55;0.55;;;;;;;39.38;25.99;99455.16;5032826;28;20040;-55
2021/07/17 05:07:08;;;;;;;0.17;0.17;;;;;;;39.38;26.00;99445.06;5049686;28;20419;-57
2021/07/17 05:09:37;;;;;;;0.30;0.30;;;;;;;39.41;26.34;99455.44;5049535;28;20072;-59
2021/07/17 05:12:03;;;;;;;0.10;0.10;;;;;;;39.51;25.90;99454.56;5050839;28;20057;-57
2021/07/17 05:14:29;;;;;;;0.17;0.17;;;;;;;39.48;26.52;99449.66;5050843;28;20090;-56
2021/07/17 05:16:55;;;;;;;0.20;0.20;;;;;;;39.46;26.40;99444.47;5049699;28;20143;-56
2021/07/17 05:19:21;;;;;;;0.20;0.20;;;;;;;39.41;26.32;99451.88;5050664;28;20045;-57
2021/07/17 05:21:47;;;;;;;0.20;0.20;;;;;;;39.51;26.12;99457.28;5049381;28;20105;-57
2021/07/17 05:24:13;;;;;;;0.25;0.25;;;;;;;39.53;25.84;99460.56;5050524;28;20533;-58
2021/07/17 05:26:39;;;;;;;0.30;0.30;;;;;;;39.53;26.36;99457.84;5050434;28;20045;-55
2021/07/17 05:29:05;;;;;;;0.30;0.30;;;;;;;39.53;25.98;99453.16;5032509;28;20526;-55
2021/07/17 05:31:31;;;;;;;0.20;0.20;;;;;;;39.60;26.03;99461.03;5050174;28;20522;-54
2021/07/17 05:33:58;;;;;;;0.40;0.40;;;;;;;39.59;26.07;99456.69;5050388;28;20102;-59
2021/07/17 05:36:24;;;;;;;0.20;0.20;;;;;;;39.58;25.94;99446.84;5050090;28;20046;-57
2021/07/17 05:38:50;;;;;;;0.20;0.20;;;;;;;39.71;26.07;99459.91;5050261;28;20580;-57
2021/07/17 05:41:16;;;;;;;0.20;0.20;;;;;;;39.74;25.92;99458.53;5032277;28;20049;-58
2021/07/17 05:43:42;;;;;;;0.13;0.13;;;;;;;39.75;25.58;99462.91;5050125;28;20072;-60
2021/07/17 05:46:08;;;;;;;0.35;0.35;;;;;;;39.70;25.48;99469.22;5050149;28;20041;-58
2021/07/17 05:48:34;;;;;;;0.20;0.20;;;;;;;39.72;25.66;99467.03;5050417;28;20056;-60
2021/07/17 05:51:00;;;;;;;0.20;0.20;;;;;;;39.63;25.41;99463.22;5033044;28;20053;-58
2021/07/17 05:53:26;;;;;;;0.17;0.17;;;;;;;39.72;25.39;99456.09;5049737;28;20083;-58
2021/07/17 05:55:53;;;;;;;0.55;0.55;;;;;;;39.72;25.72;99467.03;5049961;28;20092;-58
2021/07/17 05:58:20;;;;;;;0.10;0.10;;;;;;;39.71;25.55;99459.91;5049893;28;20049;-59
2021/07/17 06:00:46;;;;;;;0.68;0.60;;;;;;;39.69;25.59;99456.66;5049710;28;20049;-59
2021/07/17 06:03:12;;;;;;;0.75;0.75;;;;;;;39.63;25.69;99449.53;5049874;28;20556;-59
2021/07/17 06:05:39;;;;;;;0.30;0.30;;;;;;;39.76;25.73;99465.34;5032036;28;20461;-58
2021/07/17 06:08:05;;;;;;;0.30;0.30;;;;;;;39.67;25.61;99453.34;5049741;28;20052;-59
2021/07/17 06:10:31;;;;;;;0.20;0.20;;;;;;;39.74;25.78;99451.13;5049583;28;20084;-59
2021/07/17 06:12:58;;;;;;;0.30;0.30;;;;;;;39.77;25.40;99447.84;5049698;28;20503;-59
2021/07/17 06:15:24;;;;;;;0.20;0.20;;;;;;;39.84;25.51;99453.81;5049893;28;20045;-59
2021/07/17 06:17:53;;;;;;;0.20;0.17;;;;;;;39.86;25.49;99437.91;5048143;28;20096;-58
2021/07/17 06:20:20;;;;;;;0.10;0.10;;;;;;;39.93;25.12;99446.59;5015147;28;20063;-58
2021/07/17 06:22:46;;;;;;;0.10;0.10;;;;;;;40.00;24.81;99449.84;5049431;28;20041;-58
2021/07/17 06:25:12;;;;;;;0.10;0.10;;;;;;;40.03;24.84;99438.31;5031789;28;20465;-58
2021/07/17 06:27:38;;;;;;;0.20;0.20;;;;;;;40.06;24.98;99443.22;5049262;28;20510;-58
2021/07/17 06:30:05;;;;;;;0.10;0.10;;;;;;;40.23;24.37;99444.75;5049547;28;20060;-59
2021/07/17 06:32:31;;;;;;;0.10;0.10;;;;;;;40.57;24.16;99423.63;5031416;28;20052;-58
2021/07/17 06:34:57;;;;;;;1.45;0.30;;;;;;;42.49;21.61;99437.25;5049440;28;20045;-58
2021/07/17 06:37:23;;;;;;;0.50;0.50;;;;;;;46.20;17.66;99439.88;5049497;28;20137;-57
2021/07/17 06:39:49;;;;;;;0.75;0.75;;;;;;;49.02;14.92;99444.25;5047968;28;20045;-59
2021/07/17 06:42:15;;;;;;;0.60;0.60;;;;;;;50.63;13.58;99439.31;5049218;28;20064;-58
2021/07/17 06:44:41;;;;;;;0.40;0.40;;;;;;;51.43;12.66;99437.66;5049316;28;20048;-58
2021/07/17 06:47:06;;;;;;;0.50;0.50;;;;;;;51.86;12.23;99442.13;5031500;28;20149;-58
2021/07/17 06:49:32;;;;;;;0.40;0.40;;;;;;;52.12;12.42;99444.22;5049061;28;20041;-58
2021/07/17 06:51:58;;;;;;;0.30;0.30;;;;;;;52.35;11.99;99435.88;5049330;28;20095;-58
2021/07/17 06:54:24;;;;;;;0.40;0.40;;;;;;;52.21;11.98;99436.41;5049205;28;20045;-57
2021/07/17 06:56:50;;;;;;;0.40;0.40;;;;;;;51.87;12.37;99431.78;5049084;28;20320;-58
2021/07/17 06:59:16;;;;;;;0.50;0.50;;;;;;;51.22;12.47;99425.19;5031577;28;20764;-57
2021/07/17 07:01:42;;;;;;;0.60;0.60;;;;;;;48.70;14.63;99414.66;5048945;28;20111;-57
2021/07/17 07:04:08;;;;;;;0.10;0.10;;;;;;;45.50;17.75;99409.88;5049220;28;20061;-58
2021/07/17 07:06:34;;;;;;;0.98;0.20;;;;;;;43.40;19.79;99419.72;5049005;28;20477;-57
2021/07/17 07:09:00;;;;;;;0.30;0.30;;;;;;;42.13;21.49;99425.25;5049062;28;20045;-56
2021/07/17 07:11:26;;;;;;;0.13;0.13;;;;;;;41.22;22.32;99412.97;5049117;28;20053;-56
2021/07/17 07:13:52;;;;;;;0.10;0.10;;;;;;;40.73;23.25;99421.50;5048907;28;20057;-57
2021/07/17 07:16:18;;;;;;;0.22;0.22;;;;;;;40.28;23.63;99420.06;5049264;28;20103;-58
2021/07/17 07:18:44;;;;;;;0.10;0.10;;;;;;;39.92;24.17;99417.63;5048837;28;20514;-57
2021/07/17 07:21:10;;;;;;;0.17;0.17;;;;;;;39.69;24.64;99418.38;5048932;28;20091;-57
2021/07/17 07:23:36;;;;;;;0.20;0.20;;;;;;;39.51;24.97;99422.56;5047432;28;20087;-55
2021/07/17 07:26:02;;;;;;;0.10;0.10;;;;;;;39.27;25.64;99421.63;5049093;28;20056;-55
2021/07/17 07:28:28;;;;;;;0.35;0.35;;;;;;;39.12;25.36;99412.66;5048925;28;20590;-57
2021/07/17 07:30:54;;;;;;;0.22;0.22;;;;;;;38.91;25.54;99401.00;5048969;28;20697;-57
2021/07/17 07:33:20;;;;;;;0.10;0.10;;;;;;;38.89;25.79;99420.41;5033138;28;20053;-57
2021/07/17 07:35:46;;;;;;;0.10;0.10;;;;;;;38.63;26.07;99418.84;5052623;28;20056;-57
2021/07/17 07:38:12;;;;;;;0.20;0.20;;;;;;;38.57;26.13;99409.03;5052536;28;20384;-58
2021/07/17 07:40:38;;;;;;;0.13;0.13;;;;;;;38.40;26.08;99403.91;5052317;28;20688;-57
2021/07/17 07:43:05;;;;;;;0.15;0.15;;;;;;;38.42;25.89;99414.53;5052423;28;20583;-57
2021/07/17 07:45:31;;;;;;;0.43;0.43;;;;;;;38.29;26.64;99398.69;5052286;28;20048;-59
2021/07/17 07:47:57;;;;;;;0.25;0.25;;;;;;;38.29;26.27;99406.88;5052328;28;20056;-57
2021/07/17 07:50:23;;;;;;;0.30;0.30;;;;;;;38.23;26.17;99405.25;5052250;28;20045;-56
2021/07/17 07:52:50;;;;;;;0.40;0.40;;;;;;;38.17;26.29;99411.81;5052069;28;20049;-58
2021/07/17 07:55:17;;;;;;;0.20;0.20;;;;;;;38.12;26.87;99406.38;5052240;28;20518;-58
2021/07/17 07:57:43;;;;;;;0.30;0.30;;;;;;;38.02;26.72;99409.94;5052091;28;20068;-57
2021/07/17 08:00:09;;;;;;;0.15;0.15;;;;;;;37.97;26.56;99402.56;5052019;28;20063;-58
2021/07/17 08:02:37;;;;;;;0.00;0.00;;;;;;;37.73;26.65;99396.00;5034532;28;20055;-55
2021/07/17 08:05:04;;;;;;;0.13;0.13;;;;;;;37.62;26.92;99405.28;5052199;28;20295;-56
2021/07/17 08:07:30;;;;;;;0.30;0.30;;;;;;;37.56;27.07;99411.81;5052088;28;20052;-57
2021/07/17 08:09:56;;;;;;;0.05;0.05;;;;;;;37.57;27.03;99405.25;5051796;28;20048;-57
2021/07/17 08:12:22;;;;;;;0.10;0.10;;;;;;;37.53;26.98;99404.19;5051970;28;20140;-58
2021/07/17 08:14:48;;;;;;;0.25;0.25;;;;;;;37.51;26.72;99400.88;5051679;28;20403;-56
2021/07/17 08:17:14;;;;;;;0.10;0.10;;;;;;;37.42;26.66;99394.31;5051916;28;20040;-58
2021/07/17 08:19:40;;;;;;;0.10;0.10;;;;;;;37.38;27.06;99394.03;5033837;28;20115;-57
2021/07/17 08:22:06;;;;;;;0.10;0.10;;;;;;;37.27;26.98;99381.47;5051960;28;20144;-59
2021/07/17 08:24:32;;;;;;;0.10;0.10;;;;;;;37.24;26.75;99381.22;5051739;28;20037;-59
2021/07/17 08:26:58;;;;;;;0.10;0.10;;;;;;;37.21;26.68;99387.19;5034065;28;20044;-58
2021/07/17 08:29:24;;;;;;;0.08;0.08;;;;;;;37.16;26.65;99385.28;5051807;28;20136;-60
2021/07/17 08:31:50;;;;;;;0.30;0.30;;;;;;;37.06;27.01;99368.91;5051642;28;20057;-60
2021/07/17 08:34:16;;;;;;;0.20;0.20;;;;;;;37.06;27.04;99385.25;5051730;28;20136;-60
2021/07/17 08:36:42;;;;;;;0.20;0.20;;;;;;;37.01;26.37;99383.31;5050239;28;20124;-60
2021/07/17 08:39:08;;;;;;;0.20;0.20;;;;;;;36.99;26.56;99385.47;5051754;28;20741;-59
2021/07/17 08:41:34;;;;;;;0.10;0.10;;;;;;;36.93;26.53;99385.72;5051044;28;20353;-60
2021/07/17 08:44:00;;;;;;;0.20;0.20;;;;;;;36.87;26.69;99384.91;5051490;28;20049;-59
2021/07/17 08:46:26;;;;;;;0.20;0.20;;;;;;;36.78;26.86;99370.13;5051456;28;20091;-59
2021/07/17 08:48:53;;;;;;;0.20;0.20;;;;;;;36.78;26.80;99372.06;5016702;28;20049;-59
2021/07/17 08:51:19;;;;;;;0.45;0.45;;;;;;;36.65;27.12;99359.75;5051295;28;20037;-59
2021/07/17 08:53:45;;;;;;;0.50;0.50;;;;;;;36.70;26.59;99364.41;5051064;28;20048;-59
2021/07/17 08:56:11;;;;;;;0.88;0.45;;;;;;;36.67;26.66;99357.59;5051306;28;20095;-59
2021/07/17 08:58:38;;;;;;;0.00;0.00;;;;;;;36.58;26.51;99342.88;5050860;28;20470;-60
2021/07/17 09:01:04;;;;;;;0.10;0.10;;;;;;;36.72;26.75;99365.75;5051137;28;20053;-60
2021/07/17 09:03:30;;;;;;;0.22;0.22;;;;;;;36.67;26.51;99365.75;5050876;28;20114;-59
2021/07/17 09:05:56;;;;;;;0.03;0.03;;;;;;;36.69;26.46;99365.47;5050892;28;20072;-59
2021/07/17 09:08:22;;;;;;;0.00;0.00;;;;;;;36.67;26.63;99371.19;5049812;28;20533;-59
2021/07/17 09:10:50;;;;;;;0.10;0.10;;;;;;;36.65;26.28;99369.84;5050770;28;20053;-59
2021/07/17 09:13:15;;;;;;;0.35;0.35;;;;;;;36.63;26.72;99370.09;5050909;28;20044;-59
2021/07/17 09:15:42;;;;;;;0.10;0.10;;;;;;;36.58;26.65;99372.78;5050653;28;20044;-60
2021/07/17 09:18:08;;;;;;;0.25;0.20;;;;;;;36.44;26.28;99356.09;5049468;28;20056;-59
2021/07/17 09:20:35;;;;;;;0.10;0.10;;;;;;;36.49;26.38;99371.59;5050537;28;20056;-59
2021/07/17 09:23:02;;;;;;;0.10;0.10;;;;;;;36.48;26.33;99362.66;5050392;28;20045;-59
2021/07/17 09:25:36;;;;;;;0.10;0.10;;;;;;;36.35;26.44;99362.31;5050478;28;20136;-59
2021/07/17 09:28:25;;;;;;;0.10;0.10;;;;;;;36.34;26.51;99371.53;5050695;28;20044;-59
2021/07/17 09:30:53;;;;;;;0.43;0.43;;;;;;;36.36;26.14;99370.19;5050317;28;20115;-58
2021/07/17 09:33:19;;;;;;;0.00;0.00;;;;;;;36.30;26.49;99364.97;5049236;28;20045;-59
2021/07/17 09:35:49;;;;;;;0.25;0.25;;;;;;;36.17;26.64;99357.28;5050105;28;20041;-59
2021/07/17 09:38:16;;;;;;;0.10;0.10;;;;;;;36.09;26.63;99358.63;5048936;28;20045;-59
2021/07/17 09:40:47;;;;;;;0.20;0.20;;;;;;;36.01;26.76;99349.00;5049999;28;20057;-59
2021/07/17 09:43:34;;;;;;;0.32;0.20;;;;;;;35.92;27.20;99347.03;5049945;28;20084;-59
2021/07/17 09:46:02;;;;;;;0.13;0.13;;;;;;;35.86;27.28;99348.91;5050177;28;20625;-59
2021/07/17 09:48:30;;;;;;;0.30;0.30;;;;;;;35.82;27.42;99355.94;5048849;28;20061;-60
2021/07/17 09:50:57;;;;;;;0.20;0.20;;;;;;;35.75;27.62;99347.19;5049999;28;20045;-59
2021/07/17 09:53:39;;;;;;;0.52;0.43;;;;;;;35.72;27.81;99342.28;5050083;28;20044;-59
2021/07/17 09:56:10;;;;;;;0.20;0.20;;;;;;;35.69;27.87;99337.38;5049711;28;20577;-59
2021/07/17 09:58:38;;;;;;;0.10;0.10;;;;;;;35.68;27.99;99332.19;5049944;28;20061;-58
2021/07/17 10:01:13;;;;;;;0.20;0.20;;;;;;;35.76;27.83;99339.88;5049970;28;20048;-58
2021/07/17 10:03:42;;;;;;;0.20;0.20;;;;;;;35.77;27.34;99312.41;5049617;28;20083;-58
2021/07/17 10:06:08;;;;;;;0.10;0.10;;;;;;;35.83;27.45;99319.50;5049911;28;20474;-59
2021/07/17 10:08:35;;;;;;;0.10;0.10;;;;;;;35.80;27.45;99320.03;5049777;28;20704;-58
2021/07/17 10:11:14;;;;;;;0.40;0.40;;;;;;;35.77;27.28;99311.59;5049543;28;20144;-59
2021/07/17 10:13:40;;;;;;;0.20;0.20;;;;;;;35.75;27.78;99311.88;5049426;28;20053;-59
2021/07/17 10:16:24;;;;;;;0.10;0.10;;;;;;;35.64;27.80;99299.28;5049536;28;20225;-59
2021/07/17 10:18:51;;;;;;;0.05;0.05;;;;;;;35.51;28.12;99302.41;5049488;28;20139;-59
2021/07/17 10:21:17;;;;;;;0.10;0.10;;;;;;;35.38;28.38;99309.09;5049505;28;20052;-60
2021/07/17 10:23:43;;;;;;;0.10;0.10;;;;;;;35.28;28.53;99313.59;5049272;28;20525;-61
2021/07/17 10:26:09;;;;;;;0.22;0.22;;;;;;;35.19;28.59;99315.97;5049496;28;20056;-58
2021/07/17 10:28:35;;;;;;;0.00;0.00;;;;;;;35.09;28.71;99315.84;5049529;28;20548;-58
2021/07/17 10:31:01;;;;;;;0.20;0.20;;;;;;;35.19;28.80;99315.16;5048095;28;20045;-59
2021/07/17 10:33:31;;;;;;;0.20;0.20;;;;;;;35.31;28.21;99313.91;5049485;28;20071;-59
2021/07/17 10:36:09;;;;;;;0.10;0.10;;;;;;;35.39;28.17;99316.16;5049163;28;20048;-58
2021/07/17 10:38:35;;;;;;;0.08;0.08;;;;;;;35.50;27.96;99307.00;5048301;28;20044;-59
2021/07/17 10:41:01;;;;;;;0.10;0.10;;;;;;;35.56;28.02;99307.88;5031436;28;20053;-59
2021/07/17 10:43:27;;;;;;;0.13;0.13;;;;;;;35.65;27.92;99306.34;5014765;28;20087;-59
2021/07/17 10:45:54;;;;;;;0.30;0.30;;;;;;;35.72;27.84;99301.53;5049309;28;20068;-56
2021/07/17 10:48:32;;;;;;;0.10;0.10;;;;;;;35.79;27.67;99315.69;5050742;28;20103;-56
2021/07/17 10:51:22;;;;;;;0.15;0.15;;;;;;;35.70;28.03;99309.09;5049172;28;20497;-55
2021/07/17 10:53:48;;;;;;;0.30;0.30;;;;;;;35.71;28.04;99302.59;5043523;28;20045;-56
2021/07/17 10:56:35;;;;;;;0.20;0.20;;;;;;;35.63;28.13;99305.81;5057993;28;20049;-57
2021/07/17 10:59:10;;;;;;;0.30;0.30;;;;;;;35.54;28.37;99305.41;5048913;28;20514;-56
2021/07/17 11:01:56;;;;;;;0.28;0.28;;;;;;;35.54;28.51;99312.75;5031689;28;20148;-56
2021/07/17 11:04:30;;;;;;;0.10;0.10;;;;;;;35.53;28.48;99311.13;5031488;28;20151;-56
2021/07/17 11:06:55;;;;;;;0.05;0.05;;;;;;;35.52;28.78;99304.88;5049086;28;20071;-56
2021/07/17 11:09:27;;;;;;;0.15;0.15;;;;;;;35.47;28.52;99301.31;5051289;28;20510;-55
2021/07/17 11:12:16;;;;;;;0.65;0.65;;;;;;;35.43;28.98;99295.56;5052834;28;20053;-56
2021/07/17 11:14:43;;;;;;;0.13;0.13;;;;;;;35.42;28.81;99303.97;5068376;28;20115;-58
2021/07/17 11:17:09;;;;;;;0.75;0.57;;;;;;;35.41;28.90;99297.69;5052863;28;20464;-57
2021/07/17 11:19:36;;;;;;;0.15;0.15;;;;;;;35.41;29.06;99299.59;5052888;28;20072;-57
2021/07/17 11:22:09;;;;;;;0.20;0.20;;;;;;;35.43;28.79;99300.19;5052590;28;20053;-57
2021/07/17 11:24:35;;;;;;;0.28;0.28;;;;;;;35.45;28.68;99292.56;5052828;28;20510;-56
2021/07/17 11:27:11;;;;;;;0.00;0.00;;;;;;;35.50;29.03;99296.13;5052658;28;20053;-56
2021/07/17 11:29:44;;;;;;;0.15;0.15;;;;;;;35.48;28.96;99292.06;5052655;28;20102;-56
2021/07/17 11:32:12;;;;;;;0.13;0.13;;;;;;;35.43;28.99;99290.13;5034740;28;20228;-55
2021/07/17 11:34:51;;;;;;;0.10;0.10;;;;;;;35.32;29.01;99303.88;5051374;28;20139;-56